sensor_id;sensor_type;location;lat;lon;timestamp;pressure;altitude;pressure_sealevel;temperature;humidity
53960;BME280;39866;48.638;-2.020;2023-03-20T00:03:39;101991.50;;;15.15;53.36
53960;BME280;39866;48.638;-2.020;2023-03-20T00:06:04;101983.28;;;15.21;53.41
53960;BME280;39866;48.638;-2.020;2023-03-20T00:08:30;101979.53;;;15.26;53.22
53960;BME280;39866;48.638;-2.020;2023-03-20T00:10:57;101980.53;;;15.22;53.08
53960;BME280;39866;48.638;-2.020;2023-03-20T00:13:26;101979.44;;;15.29;53.44
53960;BME280;39866;48.638;-2.020;2023-03-20T00:15:53;101975.09;;;15.25;53.38
53960;BME280;39866;48.638;-2.020;2023-03-20T00:18:20;101983.00;;;15.31;53.24
53960;BME280;39866;48.638;-2.020;2023-03-20T00:20:48;101986.47;;;15.33;53.63
53960;BME280;39866;48.638;-2.020;2023-03-20T00:23:14;101974.34;;;15.20;53.39
53960;BME280;39866;48.638;-2.020;2023-03-20T00:25:41;101978.72;;;15.24;53.38
53960;BME280;39866;48.638;-2.020;2023-03-20T00:28:29;101972.28;;;15.30;53.52
53960;BME280;39866;48.638;-2.020;2023-03-20T00:30:56;101978.56;;;15.29;53.47
53960;BME280;39866;48.638;-2.020;2023-03-20T00:33:22;101983.94;;;15.29;53.37
53960;BME280;39866;48.638;-2.020;2023-03-20T00:35:47;101978.88;;;15.18;53.36
53960;BME280;39866;48.638;-2.020;2023-03-20T00:38:13;101976.31;;;15.14;53.79
53960;BME280;39866;48.638;-2.020;2023-03-20T00:40:38;101985.97;;;14.88;53.37
53960;BME280;39866;48.638;-2.020;2023-03-20T00:43:04;101975.09;;;14.93;53.68
53960;BME280;39866;48.638;-2.020;2023-03-20T00:45:31;101978.91;;;14.84;53.79
53960;BME280;39866;48.638;-2.020;2023-03-20T00:47:58;101985.16;;;14.86;53.74
53960;BME280;39866;48.638;-2.020;2023-03-20T00:50:26;101981.47;;;14.90;53.60
53960;BME280;39866;48.638;-2.020;2023-03-20T00:52:53;101983.34;;;14.85;53.72
53960;BME280;39866;48.638;-2.020;2023-03-20T00:55:21;101988.78;;;14.83;53.70
53960;BME280;39866;48.638;-2.020;2023-03-20T00:57:50;101979.84;;;14.83;53.65
53960;BME280;39866;48.638;-2.020;2023-03-20T01:00:37;101977.78;;;14.93;53.50
53960;BME280;39866;48.638;-2.020;2023-03-20T01:03:21;101965.31;;;14.92;53.35
53960;BME280;39866;48.638;-2.020;2023-03-20T01:05:48;101972.31;;;14.97;53.62
53960;BME280;39866;48.638;-2.020;2023-03-20T01:08:22;101960.09;;;14.85;53.60
53960;BME280;39866;48.638;-2.020;2023-03-20T01:10:51;101961.50;;;15.00;53.24
53960;BME280;39866;48.638;-2.020;2023-03-20T01:13:20;101969.34;;;15.08;53.25
53960;BME280;39866;48.638;-2.020;2023-03-20T01:15:47;101968.31;;;15.12;53.07
53960;BME280;39866;48.638;-2.020;2023-03-20T01:18:14;101969.28;;;15.09;53.15
53960;BME280;39866;48.638;-2.020;2023-03-20T01:20:40;101959.41;;;15.10;52.97
53960;BME280;39866;48.638;-2.020;2023-03-20T01:23:06;101960.34;;;15.09;53.02
53960;BME280;39866;48.638;-2.020;2023-03-20T01:25:31;101955.88;;;15.09;53.12
53960;BME280;39866;48.638;-2.020;2023-03-20T01:27:57;101957.59;;;15.12;52.97
53960;BME280;39866;48.638;-2.020;2023-03-20T01:30:31;101961.16;;;15.13;52.91
53960;BME280;39866;48.638;-2.020;2023-03-20T01:32:59;101954.13;;;15.08;52.87
53960;BME280;39866;48.638;-2.020;2023-03-20T01:35:26;101968.25;;;15.15;52.91
53960;BME280;39866;48.638;-2.020;2023-03-20T01:37:52;101958.31;;;15.19;52.62
53960;BME280;39866;48.638;-2.020;2023-03-20T01:40:42;101957.31;;;15.21;52.44
53960;BME280;39866;48.638;-2.020;2023-03-20T01:43:13;101945.84;;;15.16;52.39
53960;BME280;39866;48.638;-2.020;2023-03-20T01:45:47;101955.63;;;15.19;52.77
53960;BME280;39866;48.638;-2.020;2023-03-20T01:48:16;101965.44;;;15.20;52.55
53960;BME280;39866;48.638;-2.020;2023-03-20T01:50:43;101969.81;;;15.22;52.35
53960;BME280;39866;48.638;-2.020;2023-03-20T01:53:17;101968.97;;;15.20;52.42
53960;BME280;39866;48.638;-2.020;2023-03-20T01:55:45;101973.63;;;15.14;52.77
53960;BME280;39866;48.638;-2.020;2023-03-20T01:58:15;101961.16;;;15.13;52.46
53960;BME280;39866;48.638;-2.020;2023-03-20T02:00:45;101961.34;;;15.06;52.40
53960;BME280;39866;48.638;-2.020;2023-03-20T02:03:12;101966.91;;;14.99;52.72
53960;BME280;39866;48.638;-2.020;2023-03-20T02:05:38;101961.63;;;14.96;52.50
53960;BME280;39866;48.638;-2.020;2023-03-20T02:10:42;101960.50;;;15.04;52.58
53960;BME280;39866;48.638;-2.020;2023-03-20T02:13:08;101953.59;;;14.96;52.48
53960;BME280;39866;48.638;-2.020;2023-03-20T02:15:35;101947.03;;;15.06;52.28
53960;BME280;39866;48.638;-2.020;2023-03-20T02:18:16;101949.75;;;15.04;52.16
53960;BME280;39866;48.638;-2.020;2023-03-20T02:20:55;101945.13;;;15.09;52.05
53960;BME280;39866;48.638;-2.020;2023-03-20T02:40:02;101921.50;;;15.22;52.21
53960;BME280;39866;48.638;-2.020;2023-03-20T02:45:53;101919.09;;;15.13;51.60
53960;BME280;39866;48.638;-2.020;2023-03-20T02:51:13;101917.41;;;15.10;52.38
53960;BME280;39866;48.638;-2.020;2023-03-20T02:56:23;101904.00;;;15.10;51.73
53960;BME280;39866;48.638;-2.020;2023-03-20T02:59:21;101909.25;;;15.14;51.66
53960;BME280;39866;48.638;-2.020;2023-03-20T03:01:58;101904.81;;;15.13;51.63
53960;BME280;39866;48.638;-2.020;2023-03-20T03:04:31;101904.97;;;15.08;51.99
53960;BME280;39866;48.638;-2.020;2023-03-20T03:07:01;101904.88;;;15.11;51.68
53960;BME280;39866;48.638;-2.020;2023-03-20T03:09:35;101907.50;;;15.13;51.99
53960;BME280;39866;48.638;-2.020;2023-03-20T03:12:11;101905.84;;;15.08;52.28
53960;BME280;39866;48.638;-2.020;2023-03-20T03:14:48;101907.78;;;15.03;52.33
53960;BME280;39866;48.638;-2.020;2023-03-20T03:17:17;101904.56;;;14.91;52.04
53960;BME280;39866;48.638;-2.020;2023-03-20T03:19:49;101894.63;;;14.94;52.10
53960;BME280;39866;48.638;-2.020;2023-03-20T03:22:17;101892.31;;;14.80;52.00
53960;BME280;39866;48.638;-2.020;2023-03-20T03:24:48;101887.97;;;14.76;52.13
53960;BME280;39866;48.638;-2.020;2023-03-20T03:27:19;101890.53;;;14.81;52.51
53960;BME280;39866;48.638;-2.020;2023-03-20T03:29:59;101884.28;;;14.80;52.28
53960;BME280;39866;48.638;-2.020;2023-03-20T03:32:34;101879.84;;;14.79;52.51
53960;BME280;39866;48.638;-2.020;2023-03-20T03:35:02;101883.28;;;14.84;52.51
53960;BME280;39866;48.638;-2.020;2023-03-20T03:37:39;101881.34;;;14.90;52.42
53960;BME280;39866;48.638;-2.020;2023-03-20T03:40:34;101879.78;;;14.82;52.27
53960;BME280;39866;48.638;-2.020;2023-03-20T03:45:39;101884.13;;;14.86;52.25
53960;BME280;39866;48.638;-2.020;2023-03-20T03:50:38;101873.69;;;14.76;52.06
53960;BME280;39866;48.638;-2.020;2023-03-20T03:53:09;101866.50;;;14.78;52.29
53960;BME280;39866;48.638;-2.020;2023-03-20T03:55:45;101861.81;;;14.84;52.16
53960;BME280;39866;48.638;-2.020;2023-03-20T04:00:40;101859.34;;;14.78;52.03
53960;BME280;39866;48.638;-2.020;2023-03-20T04:03:07;101859.34;;;14.78;52.20
53960;BME280;39866;48.638;-2.020;2023-03-20T04:05:35;101864.50;;;14.84;52.47
53960;BME280;39866;48.638;-2.020;2023-03-20T04:08:03;101867.16;;;14.86;52.51
53960;BME280;39866;48.638;-2.020;2023-03-20T04:10:29;101859.13;;;14.84;52.29
53960;BME280;39866;48.638;-2.020;2023-03-20T04:12:55;101862.69;;;14.85;52.54
53960;BME280;39866;48.638;-2.020;2023-03-20T04:15:20;101866.38;;;14.82;52.37
53960;BME280;39866;48.638;-2.020;2023-03-20T04:17:46;101861.63;;;14.59;52.23
53960;BME280;39866;48.638;-2.020;2023-03-20T04:20:12;101868.59;;;14.67;52.57
53960;BME280;39866;48.638;-2.020;2023-03-20T04:22:38;101873.78;;;14.73;52.53
53960;BME280;39866;48.638;-2.020;2023-03-20T04:25:06;101871.81;;;14.79;52.96
53960;BME280;39866;48.638;-2.020;2023-03-20T04:27:32;101868.38;;;14.74;52.71
53960;BME280;39866;48.638;-2.020;2023-03-20T04:29:57;101876.28;;;14.79;52.83
53960;BME280;39866;48.638;-2.020;2023-03-20T04:32:22;101868.25;;;14.79;52.58
53960;BME280;39866;48.638;-2.020;2023-03-20T04:34:48;101869.34;;;14.72;53.07
53960;BME280;39866;48.638;-2.020;2023-03-20T04:37:13;101868.53;;;14.68;52.97
53960;BME280;39866;48.638;-2.020;2023-03-20T04:39:38;101874.84;;;14.67;53.11
53960;BME280;39866;48.638;-2.020;2023-03-20T04:42:06;101872.91;;;14.72;53.13
53960;BME280;39866;48.638;-2.020;2023-03-20T04:44:32;101875.66;;;14.69;53.03
53960;BME280;39866;48.638;-2.020;2023-03-20T04:46:58;101879.00;;;14.77;53.11
53960;BME280;39866;48.638;-2.020;2023-03-20T04:49:24;101874.78;;;14.69;53.42
53960;BME280;39866;48.638;-2.020;2023-03-20T04:51:50;101868.72;;;14.62;53.52
53960;BME280;39866;48.638;-2.020;2023-03-20T04:54:15;101872.03;;;14.72;53.35
53960;BME280;39866;48.638;-2.020;2023-03-20T04:56:40;101874.66;;;14.73;53.45
53960;BME280;39866;48.638;-2.020;2023-03-20T04:59:06;101882.88;;;14.67;53.62
53960;BME280;39866;48.638;-2.020;2023-03-20T05:01:31;101877.63;;;14.63;53.61
53960;BME280;39866;48.638;-2.020;2023-03-20T05:03:56;101869.47;;;14.67;53.75
53960;BME280;39866;48.638;-2.020;2023-03-20T05:06:28;101858.16;;;14.56;53.79
53960;BME280;39866;48.638;-2.020;2023-03-20T05:08:54;101863.75;;;14.47;54.00
53960;BME280;39866;48.638;-2.020;2023-03-20T05:11:20;101848.31;;;14.56;53.97
53960;BME280;39866;48.638;-2.020;2023-03-20T05:13:45;101854.56;;;14.57;54.08
53960;BME280;39866;48.638;-2.020;2023-03-20T05:16:11;101843.84;;;14.57;54.37
53960;BME280;39866;48.638;-2.020;2023-03-20T05:18:36;101848.97;;;14.66;54.25
53960;BME280;39866;48.638;-2.020;2023-03-20T05:21:02;101850.66;;;14.69;53.92
53960;BME280;39866;48.638;-2.020;2023-03-20T05:23:28;101852.84;;;14.54;54.46
53960;BME280;39866;48.638;-2.020;2023-03-20T05:25:53;101846.44;;;14.60;54.13
53960;BME280;39866;48.638;-2.020;2023-03-20T05:28:19;101848.38;;;14.55;54.37
53960;BME280;39866;48.638;-2.020;2023-03-20T05:30:44;101844.56;;;14.64;54.42
53960;BME280;39866;48.638;-2.020;2023-03-20T05:33:10;101848.09;;;14.66;54.44
53960;BME280;39866;48.638;-2.020;2023-03-20T05:35:35;101852.38;;;14.71;54.38
53960;BME280;39866;48.638;-2.020;2023-03-20T05:38:00;101854.97;;;14.74;54.53
53960;BME280;39866;48.638;-2.020;2023-03-20T05:40:26;101861.50;;;14.64;54.36
53960;BME280;39866;48.638;-2.020;2023-03-20T05:42:51;101854.22;;;14.69;54.79
53960;BME280;39866;48.638;-2.020;2023-03-20T05:45:17;101859.53;;;14.71;54.50
53960;BME280;39866;48.638;-2.020;2023-03-20T05:47:42;101860.34;;;14.74;54.81
53960;BME280;39866;48.638;-2.020;2023-03-20T05:50:09;101870.06;;;14.78;54.99
53960;BME280;39866;48.638;-2.020;2023-03-20T05:52:34;101864.69;;;14.78;55.02
53960;BME280;39866;48.638;-2.020;2023-03-20T05:55:00;101862.84;;;14.80;54.90
53960;BME280;39866;48.638;-2.020;2023-03-20T05:57:25;101861.81;;;14.84;54.87
53960;BME280;39866;48.638;-2.020;2023-03-20T05:59:51;101863.50;;;14.89;55.16
53960;BME280;39866;48.638;-2.020;2023-03-20T06:02:16;101864.34;;;14.91;54.85
53960;BME280;39866;48.638;-2.020;2023-03-20T06:04:42;101859.84;;;14.91;54.87
53960;BME280;39866;48.638;-2.020;2023-03-20T06:07:07;101836.28;;;14.71;54.96
53960;BME280;39866;48.638;-2.020;2023-03-20T06:09:32;101877.63;;;14.95;55.54
53960;BME280;39866;48.638;-2.020;2023-03-20T06:11:58;101872.19;;;14.98;55.22
53960;BME280;39866;48.638;-2.020;2023-03-20T06:14:24;101876.81;;;14.92;55.64
53960;BME280;39866;48.638;-2.020;2023-03-20T06:16:50;101875.09;;;14.89;55.45
53960;BME280;39866;48.638;-2.020;2023-03-20T06:19:15;101871.63;;;14.85;55.67
53960;BME280;39866;48.638;-2.020;2023-03-20T06:21:40;101877.97;;;14.83;55.74
53960;BME280;39866;48.638;-2.020;2023-03-20T06:24:06;101881.53;;;14.83;55.59
53960;BME280;39866;48.638;-2.020;2023-03-20T06:26:31;101871.53;;;14.89;55.76
53960;BME280;39866;48.638;-2.020;2023-03-20T06:28:57;101874.56;;;14.76;56.06
53960;BME280;39866;48.638;-2.020;2023-03-20T06:31:22;101891.25;;;14.88;55.73
53960;BME280;39866;48.638;-2.020;2023-03-20T06:33:48;101891.25;;;14.88;55.90
53960;BME280;39866;48.638;-2.020;2023-03-20T06:36:13;101889.38;;;14.90;56.10
53960;BME280;39866;48.638;-2.020;2023-03-20T06:38:38;101893.03;;;14.87;56.31
53960;BME280;39866;48.638;-2.020;2023-03-20T06:41:04;101885.75;;;14.92;55.91
53960;BME280;39866;48.638;-2.020;2023-03-20T06:43:29;101886.16;;;14.77;56.47
53960;BME280;39866;48.638;-2.020;2023-03-20T06:45:55;101893.06;;;14.85;56.25
53960;BME280;39866;48.638;-2.020;2023-03-20T06:48:20;101894.06;;;14.83;56.14
53960;BME280;39866;48.638;-2.020;2023-03-20T06:50:50;101895.59;;;14.92;56.15
53960;BME280;39866;48.638;-2.020;2023-03-20T06:53:15;101894.75;;;14.90;56.36
53960;BME280;39866;48.638;-2.020;2023-03-20T06:55:42;101898.34;;;14.89;56.13
53960;BME280;39866;48.638;-2.020;2023-03-20T06:58:10;101911.59;;;14.95;56.61
53960;BME280;39866;48.638;-2.020;2023-03-20T07:00:36;101903.44;;;14.98;56.35
53960;BME280;39866;48.638;-2.020;2023-03-20T07:03:02;101904.34;;;14.98;56.29
53960;BME280;39866;48.638;-2.020;2023-03-20T07:05:27;101899.81;;;15.00;56.53
53960;BME280;39866;48.638;-2.020;2023-03-20T07:07:53;101897.13;;;15.00;56.49
53960;BME280;39866;48.638;-2.020;2023-03-20T07:10:18;101894.53;;;14.97;56.71
53960;BME280;39866;48.638;-2.020;2023-03-20T07:12:43;101900.97;;;14.92;56.59
53960;BME280;39866;48.638;-2.020;2023-03-20T07:15:09;101888.28;;;14.97;56.61
53960;BME280;39866;48.638;-2.020;2023-03-20T07:17:35;101899.09;;;14.94;56.67
53960;BME280;39866;48.638;-2.020;2023-03-20T07:20:01;101898.06;;;14.99;56.46
53960;BME280;39866;48.638;-2.020;2023-03-20T07:22:28;101900.75;;;14.99;56.50
53960;BME280;39866;48.638;-2.020;2023-03-20T07:24:53;101891.97;;;14.93;56.45
53960;BME280;39866;48.638;-2.020;2023-03-20T07:27:19;101901.53;;;15.03;56.86
53960;BME280;39866;48.638;-2.020;2023-03-20T07:29:45;101894.22;;;15.08;56.59
53960;BME280;39866;48.638;-2.020;2023-03-20T07:32:11;101896.78;;;15.13;56.23
53960;BME280;39866;48.638;-2.020;2023-03-20T07:34:36;101907.34;;;15.19;56.21
53960;BME280;39866;48.638;-2.020;2023-03-20T07:37:02;101900.81;;;15.27;56.43
53960;BME280;39866;48.638;-2.020;2023-03-20T07:39:28;101899.03;;;15.26;56.13
53960;BME280;39866;48.638;-2.020;2023-03-20T07:41:53;101894.53;;;15.28;56.39
53960;BME280;39866;48.638;-2.020;2023-03-20T07:44:19;101899.75;;;15.33;56.25
53960;BME280;39866;48.638;-2.020;2023-03-20T07:46:45;101904.03;;;15.39;56.11
53960;BME280;39866;48.638;-2.020;2023-03-20T07:49:14;101900.44;;;15.40;56.05
53960;BME280;39866;48.638;-2.020;2023-03-20T07:51:43;101898.63;;;15.40;56.14
53960;BME280;39866;48.638;-2.020;2023-03-20T07:54:09;101892.41;;;15.40;56.43
53960;BME280;39866;48.638;-2.020;2023-03-20T07:56:34;101898.59;;;15.42;56.13
53960;BME280;39866;48.638;-2.020;2023-03-20T07:58:59;101894.28;;;15.36;56.41
53960;BME280;39866;48.638;-2.020;2023-03-20T08:01:25;101894.94;;;15.44;56.14
53960;BME280;39866;48.638;-2.020;2023-03-20T08:03:50;101902.63;;;15.55;56.10
53960;BME280;39866;48.638;-2.020;2023-03-20T08:06:16;101902.84;;;15.49;56.23
53960;BME280;39866;48.638;-2.020;2023-03-20T08:08:41;101910.81;;;15.52;56.31
53960;BME280;39866;48.638;-2.020;2023-03-20T08:11:07;101906.25;;;15.54;56.32
53960;BME280;39866;48.638;-2.020;2023-03-20T08:13:32;101912.41;;;15.57;56.21
53960;BME280;39866;48.638;-2.020;2023-03-20T08:15:58;101916.03;;;15.56;56.42
53960;BME280;39866;48.638;-2.020;2023-03-20T08:18:23;101901.59;;;15.60;56.39
53960;BME280;39866;48.638;-2.020;2023-03-20T08:20:49;101907.09;;;15.56;56.32
53960;BME280;39866;48.638;-2.020;2023-03-20T08:23:15;101907.00;;;15.59;56.63
53960;BME280;39866;48.638;-2.020;2023-03-20T08:25:41;101902.28;;;15.67;56.23
53960;BME280;39866;48.638;-2.020;2023-03-20T08:28:06;101902.94;;;15.75;56.22
53960;BME280;39866;48.638;-2.020;2023-03-20T08:30:32;101899.34;;;15.76;56.45
53960;BME280;39866;48.638;-2.020;2023-03-20T08:32:57;101902.75;;;15.81;56.19
53960;BME280;39866;48.638;-2.020;2023-03-20T08:35:23;101905.22;;;15.88;56.38
53960;BME280;39866;48.638;-2.020;2023-03-20T08:37:49;101894.53;;;15.86;56.26
53960;BME280;39866;48.638;-2.020;2023-03-20T08:40:14;101898.97;;;15.87;56.44
53960;BME280;39866;48.638;-2.020;2023-03-20T08:42:39;101896.97;;;15.94;56.35
53960;BME280;39866;48.638;-2.020;2023-03-20T08:45:05;101889.94;;;15.90;56.31
53960;BME280;39866;48.638;-2.020;2023-03-20T08:47:31;101892.41;;;15.96;56.39
53960;BME280;39866;48.638;-2.020;2023-03-20T08:49:56;101900.63;;;15.91;56.42
53960;BME280;39866;48.638;-2.020;2023-03-20T08:52:22;101898.72;;;15.95;56.57
53960;BME280;39866;48.638;-2.020;2023-03-20T08:54:47;101890.00;;;15.88;56.67
53960;BME280;39866;48.638;-2.020;2023-03-20T08:57:12;101897.06;;;15.91;56.85
53960;BME280;39866;48.638;-2.020;2023-03-20T08:59:38;101895.41;;;15.87;56.87
53960;BME280;39866;48.638;-2.020;2023-03-20T09:02:06;101895.22;;;15.93;56.75
53960;BME280;39866;48.638;-2.020;2023-03-20T09:04:31;101891.78;;;15.88;57.00
53960;BME280;39866;48.638;-2.020;2023-03-20T09:06:57;101891.91;;;15.84;56.90
53960;BME280;39866;48.638;-2.020;2023-03-20T09:09:22;101896.03;;;15.95;56.94
53960;BME280;39866;48.638;-2.020;2023-03-20T09:11:56;101900.28;;;16.02;56.94
53960;BME280;39866;48.638;-2.020;2023-03-20T09:14:22;101899.31;;;16.04;56.81
53960;BME280;39866;48.638;-2.020;2023-03-20T09:16:51;101897.38;;;16.08;56.73
53960;BME280;39866;48.638;-2.020;2023-03-20T09:19:17;101902.75;;;16.08;56.78
53960;BME280;39866;48.638;-2.020;2023-03-20T09:21:43;101903.59;;;16.10;56.73
53960;BME280;39866;48.638;-2.020;2023-03-20T09:24:08;101896.47;;;16.09;57.10
53960;BME280;39866;48.638;-2.020;2023-03-20T09:26:35;101895.31;;;16.16;56.88
53960;BME280;39866;48.638;-2.020;2023-03-20T09:29:00;101885.94;;;16.03;57.16
53960;BME280;39866;48.638;-2.020;2023-03-20T09:31:26;101894.41;;;16.17;57.06
53960;BME280;39866;48.638;-2.020;2023-03-20T09:33:51;101891.75;;;16.16;57.09
53960;BME280;39866;48.638;-2.020;2023-03-20T09:36:17;101892.78;;;16.13;57.10
53960;BME280;39866;48.638;-2.020;2023-03-20T09:38:42;101895.22;;;16.19;57.01
53960;BME280;39866;48.638;-2.020;2023-03-20T09:41:19;101895.19;;;16.21;56.99
53960;BME280;39866;48.638;-2.020;2023-03-20T09:43:55;101879.94;;;16.21;57.19
53960;BME280;39866;48.638;-2.020;2023-03-20T09:49:43;101885.09;;;16.27;57.17
53960;BME280;39866;48.638;-2.020;2023-03-20T09:54:50;101891.19;;;16.32;57.35
53960;BME280;39866;48.638;-2.020;2023-03-20T09:57:31;101885.81;;;16.32;57.36
53960;BME280;39866;48.638;-2.020;2023-03-20T10:00:03;101874.25;;;16.30;57.85
53960;BME280;39866;48.638;-2.020;2023-03-20T10:03:04;101877.97;;;16.26;58.12
53960;BME280;39866;48.638;-2.020;2023-03-20T10:05:38;101875.22;;;16.28;58.23
53960;BME280;39866;48.638;-2.020;2023-03-20T10:08:12;101876.41;;;16.19;58.14
53960;BME280;39866;48.638;-2.020;2023-03-20T10:18:56;101874.19;;;16.32;57.72
53960;BME280;39866;48.638;-2.020;2023-03-20T10:21:34;101876.41;;;16.21;58.25
53960;BME280;39866;48.638;-2.020;2023-03-20T10:24:03;101872.69;;;16.23;58.02
53960;BME280;39866;48.638;-2.020;2023-03-20T10:26:34;101873.56;;;16.24;57.98
53960;BME280;39866;48.638;-2.020;2023-03-20T10:29:04;101865.94;;;16.38;57.66
53960;BME280;39866;48.638;-2.020;2023-03-20T10:37:18;101858.91;;;16.34;59.13
53960;BME280;39866;48.638;-2.020;2023-03-20T10:40:25;101849.63;;;16.43;58.69
53960;BME280;39866;48.638;-2.020;2023-03-20T10:42:53;101859.06;;;16.29;59.25
53960;BME280;39866;48.638;-2.020;2023-03-20T10:48:10;101845.84;;;16.23;59.69
53960;BME280;39866;48.638;-2.020;2023-03-20T10:50:44;101843.22;;;16.22;59.94
53960;BME280;39866;48.638;-2.020;2023-03-20T10:53:22;101844.00;;;16.24;59.99
53960;BME280;39866;48.638;-2.020;2023-03-20T10:55:49;101837.56;;;16.29;59.69
53960;BME280;39866;48.638;-2.020;2023-03-20T10:58:22;101838.44;;;16.30;59.85
53960;BME280;39866;48.638;-2.020;2023-03-20T11:00:49;101832.41;;;16.23;60.57
53960;BME280;39866;48.638;-2.020;2023-03-20T11:03:20;101836.59;;;16.05;61.74
53960;BME280;39866;48.638;-2.020;2023-03-20T11:05:49;101829.94;;;16.17;61.06
53960;BME280;39866;48.638;-2.020;2023-03-20T11:08:22;101815.47;;;16.21;61.18
53960;BME280;39866;48.638;-2.020;2023-03-20T11:10:58;101819.28;;;16.14;61.59
53960;BME280;39866;48.638;-2.020;2023-03-20T11:13:30;101820.16;;;16.15;62.40
53960;BME280;39866;48.638;-2.020;2023-03-20T11:16:07;101815.34;;;16.24;61.87
53960;BME280;39866;48.638;-2.020;2023-03-20T11:18:33;101809.53;;;16.37;61.69
53960;BME280;39866;48.638;-2.020;2023-03-20T11:21:00;101804.91;;;16.40;62.15
53960;BME280;39866;48.638;-2.020;2023-03-20T11:23:28;101800.03;;;16.51;61.72
53960;BME280;39866;48.638;-2.020;2023-03-20T11:25:58;101797.34;;;16.51;62.00
53960;BME280;39866;48.638;-2.020;2023-03-20T11:28:32;101808.88;;;16.55;61.94
53960;BME280;39866;48.638;-2.020;2023-03-20T11:33:50;101805.94;;;16.61;61.39
53960;BME280;39866;48.638;-2.020;2023-03-20T11:36:22;101797.88;;;16.61;61.36
53960;BME280;39866;48.638;-2.020;2023-03-20T11:38:49;101795.38;;;16.56;61.31
53960;BME280;39866;48.638;-2.020;2023-03-20T11:41:33;101797.28;;;16.53;61.13
53960;BME280;39866;48.638;-2.020;2023-03-20T11:43:58;101784.56;;;16.58;61.08
53960;BME280;39866;48.638;-2.020;2023-03-20T11:46:24;101790.06;;;16.55;61.17
53960;BME280;39866;48.638;-2.020;2023-03-20T11:49:18;101778.16;;;16.62;60.88
53960;BME280;39866;48.638;-2.020;2023-03-20T11:51:45;101778.75;;;16.70;60.02
53960;BME280;39866;48.638;-2.020;2023-03-20T11:54:16;101776.16;;;16.67;59.68
53960;BME280;39866;48.638;-2.020;2023-03-20T11:56:57;101782.28;;;16.71;59.24
53960;BME280;39866;48.638;-2.020;2023-03-20T11:59:34;101783.97;;;16.75;58.98
53960;BME280;39866;48.638;-2.020;2023-03-20T12:02:03;101770.56;;;16.73;58.89
53960;BME280;39866;48.638;-2.020;2023-03-20T12:04:34;101776.06;;;16.94;59.35
53960;BME280;39866;48.638;-2.020;2023-03-20T12:07:14;101769.75;;;16.95;58.95
53960;BME280;39866;48.638;-2.020;2023-03-20T12:09:45;101777.09;;;16.90;58.79
53960;BME280;39866;48.638;-2.020;2023-03-20T12:17:56;101770.53;;;17.20;58.47
53960;BME280;39866;48.638;-2.020;2023-03-20T12:25:39;101761.03;;;17.33;57.72
53960;BME280;39866;48.638;-2.020;2023-03-20T12:33:55;101761.13;;;17.30;58.12
53960;BME280;39866;48.638;-2.020;2023-03-20T12:36:33;101754.91;;;17.52;57.99
53960;BME280;39866;48.638;-2.020;2023-03-20T12:39:05;101752.88;;;17.57;57.91
53960;BME280;39866;48.638;-2.020;2023-03-20T12:41:48;101758.16;;;17.60;57.21
53960;BME280;39866;48.638;-2.020;2023-03-20T12:44:22;101755.38;;;17.62;57.27
53960;BME280;39866;48.638;-2.020;2023-03-20T12:47:23;101749.13;;;17.61;56.90
53960;BME280;39866;48.638;-2.020;2023-03-20T12:58:43;101738.59;;;17.55;56.17
53960;BME280;39866;48.638;-2.020;2023-03-20T13:07:00;101724.34;;;17.53;56.20
53960;BME280;39866;48.638;-2.020;2023-03-20T13:17:48;101730.31;;;17.81;56.07
53960;BME280;39866;48.638;-2.020;2023-03-20T13:23:16;101723.31;;;17.77;56.08
53960;BME280;39866;48.638;-2.020;2023-03-20T13:26:18;101724.94;;;17.81;56.06
53960;BME280;39866;48.638;-2.020;2023-03-20T13:29:35;101716.03;;;17.79;56.07
53960;BME280;39866;48.638;-2.020;2023-03-20T13:39:34;101704.25;;;17.82;55.98
53960;BME280;39866;48.638;-2.020;2023-03-20T13:42:03;101711.13;;;17.89;56.01
53960;BME280;39866;48.638;-2.020;2023-03-20T13:44:31;101708.16;;;17.95;55.76
53960;BME280;39866;48.638;-2.020;2023-03-20T13:47:04;101707.16;;;17.98;55.76
53960;BME280;39866;48.638;-2.020;2023-03-20T13:49:38;101704.19;;;18.04;55.82
53960;BME280;39866;48.638;-2.020;2023-03-20T13:52:16;101703.47;;;18.00;55.63
53960;BME280;39866;48.638;-2.020;2023-03-20T13:54:59;101702.53;;;18.01;55.80
53960;BME280;39866;48.638;-2.020;2023-03-20T13:57:47;101700.41;;;18.08;55.37
53960;BME280;39866;48.638;-2.020;2023-03-20T14:00:37;101694.56;;;17.98;55.38
53960;BME280;39866;48.638;-2.020;2023-03-20T14:05:40;101685.06;;;18.10;55.58
53960;BME280;39866;48.638;-2.020;2023-03-20T14:11:13;101676.97;;;18.10;55.80
53960;BME280;39866;48.638;-2.020;2023-03-20T14:13:58;101676.69;;;18.16;55.75
53960;BME280;39866;48.638;-2.020;2023-03-20T14:16:27;101675.59;;;18.20;55.87
53960;BME280;39866;48.638;-2.020;2023-03-20T14:19:18;101664.81;;;18.20;56.17
53960;BME280;39866;48.638;-2.020;2023-03-20T14:21:48;101669.53;;;18.15;56.59
53960;BME280;39866;48.638;-2.020;2023-03-20T14:24:16;101671.59;;;18.10;56.73
53960;BME280;39866;48.638;-2.020;2023-03-20T14:26:47;101666.97;;;18.12;56.93
53960;BME280;39866;48.638;-2.020;2023-03-20T14:31:40;101653.50;;;18.12;57.02
53960;BME280;39866;48.638;-2.020;2023-03-20T14:36:59;101668.53;;;18.18;56.53
53960;BME280;39866;48.638;-2.020;2023-03-20T14:39:46;101661.78;;;17.89;56.61
53960;BME280;39866;48.638;-2.020;2023-03-20T14:48:03;101648.13;;;17.71;55.53
53960;BME280;39866;48.638;-2.020;2023-03-20T14:51:10;101642.41;;;17.58;55.15
53960;BME280;39866;48.638;-2.020;2023-03-20T14:53:41;101640.88;;;17.53;54.87
53960;BME280;39866;48.638;-2.020;2023-03-20T14:56:08;101641.81;;;17.52;54.64
53960;BME280;39866;48.638;-2.020;2023-03-20T14:58:45;101640.03;;;17.51;54.43
53960;BME280;39866;48.638;-2.020;2023-03-20T15:04:05;101648.50;;;17.64;53.93
53960;BME280;39866;48.638;-2.020;2023-03-20T15:06:31;101642.75;;;17.71;53.57